createdAt,value
2019-02-28T00:00:54.084Z,74.20
2019-02-28T00:03:36.051Z,74.38
2019-02-28T00:06:32.765Z,74.51
2019-02-28T00:09:14.610Z,74.61
2019-02-28T00:11:55.455Z,74.85
2019-02-28T00:14:55.276Z,75.03
2019-02-28T00:17:34.984Z,75.18
2019-02-28T00:20:20.902Z,74.91
2019-02-28T00:23:04.224Z,74.85
2019-02-28T00:25:43.362Z,74.91
2019-02-28T00:28:17.857Z,74.80
2019-02-28T00:31:14.221Z,74.52
2019-02-28T00:33:45.342Z,74.32
2019-02-28T00:36:24.113Z,74.22
2019-02-28T00:39:03.991Z,74.48
2019-02-28T00:41:46.512Z,74.70
2019-02-28T00:44:33.051Z,75.35
2019-02-28T00:47:12.792Z,75.36
2019-02-28T00:49:47.277Z,75.22
2019-02-28T00:52:39.524Z,74.76
2019-02-28T00:55:14.544Z,74.72
2019-02-28T00:58:06.674Z,74.49
2019-02-28T01:00:52.308Z,74.35
2019-02-28T01:03:37.006Z,75.10
2019-02-28T01:06:33.008Z,76.37
2019-02-28T01:09:27.080Z,76.28
2019-02-28T01:12:00.360Z,76.25
2019-02-28T01:14:35.801Z,76.48
2019-02-28T01:17:24.068Z,76.75
2019-02-28T01:20:14.955Z,78.33
2019-02-28T01:22:46.567Z,78.95
2019-02-28T01:25:40.144Z,79.15
2019-02-28T01:28:13.684Z,78.52
2019-02-28T01:30:47.623Z,77.87
2019-02-28T01:33:25.817Z,77.51
2019-02-28T01:35:59.397Z,77.39
2019-02-28T01:38:33.354Z,77.45
2019-02-28T01:41:28.959Z,77.28
2019-02-28T01:44:04.464Z,77.08
2019-02-28T01:46:38.673Z,77.06
2019-02-28T01:49:12.509Z,76.95
2019-02-28T01:51:57.099Z,77.15
2019-02-28T01:54:30.987Z,77.20
2019-02-28T01:57:15.854Z,77.33
2019-02-28T02:00:08.962Z,77.39
2019-02-28T02:03:00.713Z,77.46
2019-02-28T02:05:35.357Z,77.63
2019-02-28T02:08:09.278Z,77.69
2019-02-28T02:11:03.789Z,77.72
2019-02-28T02:13:49.550Z,77.82
2019-02-28T02:16:37.185Z,76.85
2019-02-28T02:19:11.235Z,77.32
2019-02-28T02:22:02.543Z,77.56
2019-02-28T02:24:49.128Z,78.10
2019-02-28T02:27:23.549Z,78.41
2019-02-28T02:29:57.690Z,78.35
2019-02-28T02:32:48.890Z,78.19
2019-02-28T02:35:23.398Z,78.74
2019-02-28T02:37:57.953Z,78.86
2019-02-28T02:40:50.742Z,78.91
2019-02-28T02:43:23.531Z,78.29
2019-02-28T02:46:20.250Z,77.20
2019-02-28T02:48:51.474Z,76.92
2019-02-28T02:51:25.274Z,76.76
2019-02-28T02:53:59.320Z,76.87
2019-02-28T02:56:44.247Z,77.63
2019-02-28T02:59:37.540Z,78.88
2019-02-28T03:02:04.924Z,79.48
2019-02-28T03:04:58.493Z,79.72
2019-02-28T03:07:32.399Z,79.88
2019-02-28T03:10:17.609Z,79.88
2019-02-28T03:12:49.348Z,79.84
2019-02-28T03:15:26.944Z,79.52
2019-02-28T03:17:58.743Z,79.53
2019-02-28T03:20:45.303Z,79.70
2019-02-28T03:23:19.802Z,79.63
2019-02-28T03:26:06.870Z,79.76
2019-02-28T03:28:57.042Z,79.98
2019-02-28T03:31:54.788Z,79.92
2019-02-28T03:34:24.653Z,80.07
2019-02-28T03:36:58.810Z,80.02
2019-02-28T03:39:43.538Z,79.88
2019-02-28T03:42:35.451Z,79.75
2019-02-28T03:45:33.848Z,79.86
2019-02-28T03:48:01.669Z,79.85
2019-02-28T03:50:35.857Z,79.76
2019-02-28T03:53:22.151Z,79.61
2019-02-28T03:55:56.802Z,79.66
2019-02-28T03:58:42.971Z,79.83
2019-02-28T04:01:17.477Z,80.16
2019-02-28T04:03:51.278Z,80.30
2019-02-28T04:06:25.119Z,80.47
2019-02-28T04:09:11.109Z,80.71
2019-02-28T04:11:44.652Z,80.75
2019-02-28T04:14:18.495Z,80.70
2019-02-28T04:16:54.414Z,80.51
2019-02-28T04:19:28.438Z,80.69
2019-02-28T04:22:23.078Z,80.50
2019-02-28T04:24:56.755Z,80.52
2019-02-28T04:27:44.740Z,80.37
2019-02-28T04:30:34.150Z,80.45
2019-02-28T04:33:20.136Z,80.37
2019-02-28T04:35:56.878Z,81.29
2019-02-28T04:38:29.984Z,81.82
2019-02-28T04:41:20.662Z,82.24
2019-02-28T04:44:15.436Z,81.79
2019-02-28T04:46:48.717Z,81.87
2019-02-28T04:49:23.228Z,82.06
2019-02-28T04:51:57.035Z,82.26
2019-02-28T04:54:30.785Z,82.12
2019-02-28T04:57:05.078Z,82.32
2019-02-28T04:59:51.772Z,82.08
2019-02-28T05:02:44.379Z,82.00
2019-02-28T05:05:20.201Z,81.56
2019-02-28T05:08:09.009Z,81.35
2019-02-28T05:10:42.773Z,81.51
2019-02-28T05:13:17.186Z,81.84
2019-02-28T05:16:09.351Z,81.91
2019-02-28T05:18:44.605Z,81.60
2019-02-28T05:21:19.492Z,81.35
2019-02-28T05:24:07.742Z,81.89
2019-02-28T05:26:42.321Z,82.29
2019-02-28T05:29:32.627Z,82.70
2019-02-28T05:32:06.770Z,82.88
2019-02-28T05:34:40.970Z,82.90
2019-02-28T05:37:14.713Z,82.90
2019-02-28T05:39:48.718Z,83.00
2019-02-28T05:42:39.430Z,82.98
2019-02-28T05:45:24.681Z,82.69
2019-02-28T05:48:15.457Z,82.99
2019-02-28T05:51:01.555Z,83.15
2019-02-28T05:53:35.267Z,83.10
2019-02-28T05:56:09.820Z,83.05
2019-02-28T05:59:02.379Z,83.18
2019-02-28T06:01:53.034Z,83.22
2019-02-28T06:04:26.252Z,83.29
2019-02-28T06:07:18.135Z,83.44
2019-02-28T06:09:51.586Z,83.65
2019-02-28T06:12:36.639Z,83.57
2019-02-28T06:15:16.145Z,83.46
2019-02-28T06:18:07.105Z,83.37
2019-02-28T06:20:53.857Z,83.45
2019-02-28T06:23:27.425Z,83.58
2019-02-28T06:26:01.256Z,83.71
2019-02-28T06:28:39.211Z,83.89
2019-02-28T06:36:30.780Z,83.96
2019-02-28T06:39:09.191Z,84.01
2019-02-28T06:41:41.931Z,84.15
2019-02-28T06:44:16.277Z,84.11
2019-02-28T06:46:47.935Z,84.30
2019-02-28T06:49:21.711Z,84.38
2019-02-28T06:51:54.102Z,84.44
2019-02-28T06:54:41.072Z,84.54
2019-02-28T06:57:14.261Z,84.74
2019-02-28T06:59:47.467Z,84.78
2019-02-28T07:02:32.802Z,84.78
2019-02-28T07:05:06.223Z,84.75
2019-02-28T07:07:39.611Z,84.77
2019-02-28T07:10:13.380Z,84.65
2019-02-28T07:12:46.870Z,84.49
2019-02-28T07:15:23.999Z,84.67
2019-02-28T07:17:55.912Z,84.73
2019-02-28T07:20:30.394Z,84.86
2019-02-28T07:23:03.823Z,84.88
2019-02-28T07:25:36.963Z,84.88
2019-02-28T07:28:22.903Z,84.98
2019-02-28T07:31:10.014Z,85.04
2019-02-28T07:33:44.554Z,85.06
2019-02-28T07:36:18.967Z,85.00
2019-02-28T07:38:52.380Z,85.07
2019-02-28T07:41:26.802Z,85.07
2019-02-28T07:44:01.295Z,85.11
2019-02-28T07:46:35.317Z,85.10
2019-02-28T07:49:13.051Z,85.03
2019-02-28T07:51:51.690Z,84.94
2019-02-28T07:54:31.349Z,84.93
2019-02-28T07:57:10.416Z,84.97
2019-02-28T07:59:59.929Z,84.75
2019-02-28T08:02:40.026Z,84.52
2019-02-28T08:05:30.997Z,84.10
2019-02-28T08:08:08.781Z,83.67
2019-02-28T08:10:47.988Z,83.37
2019-02-28T08:13:26.413Z,83.16
2019-02-28T08:16:14.042Z,83.09
2019-02-28T08:19:02.536Z,82.85
2019-02-28T08:21:47.591Z,82.75
2019-02-28T08:24:28.841Z,82.59
2019-02-28T08:27:09.077Z,82.61
2019-02-28T08:29:48.996Z,82.63
2019-02-28T08:32:27.361Z,83.01
2019-02-28T08:35:16.900Z,83.80
2019-02-28T08:37:56.891Z,84.38
2019-02-28T08:40:36.533Z,84.76
2019-02-28T08:43:27.390Z,85.02
2019-02-28T08:46:16.971Z,85.41
2019-02-28T08:48:55.893Z,85.76
2019-02-28T08:51:36.933Z,85.73
2019-02-28T08:54:15.793Z,85.66
2019-02-28T08:56:56.228Z,85.60
2019-02-28T08:59:37.254Z,85.48
2019-02-28T09:02:18.273Z,85.38
2019-02-28T09:04:56.320Z,85.11
2019-02-28T09:07:35.627Z,85.15
2019-02-28T09:10:20.255Z,85.13
2019-02-28T09:12:59.233Z,84.89
2019-02-28T09:15:39.216Z,84.73
2019-02-28T09:18:18.399Z,84.81
2019-02-28T09:21:21.919Z,85.05
2019-02-28T09:24:03.170Z,85.02
2019-02-28T09:27:01.338Z,84.69
2019-02-28T09:29:40.688Z,84.68
2019-02-28T09:32:19.419Z,84.37
2019-02-28T09:35:02.576Z,83.93
2019-02-28T09:37:40.633Z,83.70
2019-02-28T09:40:21.928Z,83.78
2019-02-28T09:43:00.716Z,83.79
2019-02-28T09:45:42.256Z,83.62
2019-02-28T09:48:22.419Z,82.93
2019-02-28T09:51:00.496Z,82.68
2019-02-28T09:53:39.297Z,82.59
2019-02-28T09:56:19.501Z,82.75
2019-02-28T09:59:00.268Z,82.95
2019-02-28T10:01:42.468Z,83.05
2019-02-28T10:04:21.707Z,82.93
2019-02-28T10:07:00.594Z,82.83
2019-02-28T10:09:40.482Z,82.74
2019-02-28T10:12:20.510Z,82.28
2019-02-28T10:15:00.619Z,81.87
2019-02-28T10:17:42.210Z,81.66
2019-02-28T10:20:26.330Z,81.72
2019-02-28T10:23:25.316Z,82.73
2019-02-28T10:26:04.222Z,83.39
2019-02-28T10:28:55.602Z,83.90
2019-02-28T10:31:46.363Z,84.08
2019-02-28T10:34:35.470Z,84.39
2019-02-28T10:37:19.284Z,84.63
2019-02-28T10:40:17.671Z,84.53
2019-02-28T10:43:16.470Z,84.31
2019-02-28T10:46:13.349Z,84.36
2019-02-28T10:49:11.776Z,84.41
2019-02-28T10:52:02.865Z,84.48
2019-02-28T10:54:58.501Z,84.41
2019-02-28T10:57:37.202Z,84.30
2019-02-28T11:00:32.713Z,84.20
2019-02-28T11:03:36.413Z,83.89
2019-02-28T11:06:15.967Z,84.18
2019-02-28T11:09:18.321Z,84.35
2019-02-28T11:12:10.545Z,84.52
2019-02-28T11:15:06.392Z,84.69
2019-02-28T11:17:58.760Z,84.86
2019-02-28T11:20:49.021Z,84.75
2019-02-28T11:23:29.230Z,84.60
2019-02-28T11:26:10.368Z,84.47
2019-02-28T11:28:49.558Z,84.39
2019-02-28T11:31:28.035Z,84.33
2019-02-28T11:34:03.740Z,84.21
2019-02-28T11:36:36.738Z,84.04
2019-02-28T11:39:11.835Z,83.89
2019-02-28T11:42:03.746Z,83.79
2019-02-28T11:44:49.286Z,83.66
2019-02-28T11:47:42.652Z,83.86
2019-02-28T11:50:17.175Z,83.87
2019-02-28T11:52:53.195Z,83.80
2019-02-28T11:55:27.621Z,83.66
2019-02-28T11:58:00.655Z,83.61
2019-02-28T12:00:35.918Z,83.87
2019-02-28T12:03:21.636Z,83.67
2019-02-28T12:05:55.364Z,83.63
2019-02-28T12:08:29.535Z,83.53
2019-02-28T12:11:21.029Z,83.85
2019-02-28T12:13:55.211Z,84.10
2019-02-28T12:16:29.543Z,84.11
2019-02-28T12:19:03.545Z,84.19
2019-02-28T12:21:54.556Z,83.86
2019-02-28T12:24:32.312Z,83.66
2019-02-28T12:27:05.076Z,83.70
2019-02-28T12:29:57.161Z,83.60
2019-02-28T12:32:48.426Z,83.82
2019-02-28T12:35:39.214Z,83.85
2019-02-28T12:38:08.789Z,83.92
2019-02-28T12:40:45.552Z,83.99
2019-02-28T12:43:29.339Z,83.95
2019-02-28T12:46:13.885Z,83.51
2019-02-28T12:49:05.584Z,83.45
2019-02-28T12:51:39.655Z,83.56
2019-02-28T12:54:14.006Z,83.68
2019-02-28T12:56:47.784Z,83.58
2019-02-28T12:59:21.806Z,83.46
2019-02-28T13:02:08.481Z,83.46
2019-02-28T13:04:59.162Z,83.21
2019-02-28T13:07:33.901Z,83.17
2019-02-28T13:10:09.420Z,83.14
2019-02-28T13:12:44.324Z,82.92
2019-02-28T13:15:18.076Z,83.21
2019-02-28T13:17:51.378Z,83.34
2019-02-28T13:20:25.182Z,83.46
2019-02-28T13:22:59.444Z,83.45
2019-02-28T13:25:33.308Z,83.22
2019-02-28T13:28:24.286Z,83.16
2019-02-28T13:30:57.800Z,83.27
2019-02-28T13:33:33.715Z,83.46
2019-02-28T13:36:21.694Z,83.43
2019-02-28T13:38:54.600Z,83.44
2019-02-28T13:41:28.077Z,83.80
2019-02-28T13:44:00.415Z,83.98
2019-02-28T13:46:34.532Z,83.85
2019-02-28T13:49:08.462Z,83.88
2019-02-28T13:51:42.796Z,83.83
2019-02-28T13:54:16.575Z,84.01
2019-02-28T13:56:49.816Z,83.85
2019-02-28T13:59:23.788Z,83.73
2019-02-28T14:01:58.210Z,83.89
2019-02-28T14:04:35.495Z,83.89
2019-02-28T14:07:08.859Z,83.89
2019-02-28T14:09:41.846Z,83.81
2019-02-28T14:12:17.106Z,83.53
2019-02-28T15:11:01.942Z,84.51
2019-02-28T15:13:35.719Z,84.73
2019-02-28T15:16:09.805Z,84.74
2019-02-28T16:05:31.412Z,83.16
2019-02-28T16:08:09.026Z,83.08
2019-02-28T16:10:39.831Z,82.78
2019-02-28T16:13:13.693Z,82.30
2019-02-28T16:15:49.885Z,82.26
2019-02-28T16:18:23.290Z,82.49
2019-02-28T16:55:49.974Z,82.54
2019-02-28T16:58:24.102Z,82.61
2019-02-28T17:01:03.883Z,82.87
2019-02-28T17:03:38.302Z,82.82
2019-02-28T17:06:13.274Z,82.61
2019-02-28T17:08:57.512Z,82.60
2019-02-28T17:11:35.692Z,82.71
2019-02-28T17:14:14.697Z,82.94
2019-02-28T17:17:02.636Z,83.15
2019-02-28T17:19:36.472Z,83.36
2019-02-28T17:22:09.963Z,83.46
2019-02-28T17:24:45.742Z,83.34
2019-02-28T17:27:29.320Z,83.33
2019-02-28T17:30:24.266Z,83.27
2019-02-28T17:32:58.275Z,82.99
2019-02-28T18:09:21.294Z,82.81
2019-02-28T18:54:29.492Z,82.99
2019-02-28T18:57:03.506Z,82.93
2019-02-28T18:59:37.217Z,82.87
2019-02-28T19:02:11.328Z,82.94
2019-02-28T19:04:46.374Z,82.82
2019-02-28T19:46:54.537Z,82.90
2019-02-28T19:49:28.283Z,82.96
2019-02-28T20:02:38.012Z,83.15
2019-02-28T20:05:11.654Z,83.16
2019-02-28T20:07:45.596Z,82.84
2019-02-28T20:23:51.172Z,83.80
2019-02-28T20:26:44.353Z,83.60
2019-02-28T20:29:19.131Z,83.45
2019-02-28T20:31:53.916Z,83.35
2019-02-28T20:34:29.155Z,83.71
2019-02-28T20:37:03.624Z,84.14
2019-02-28T20:39:37.881Z,84.08
2019-02-28T20:52:44.580Z,83.71
2019-02-28T20:55:31.238Z,84.05
2019-02-28T20:58:04.702Z,84.17
2019-02-28T21:00:39.226Z,84.26
2019-02-28T21:03:25.342Z,84.61
2019-02-28T21:05:59.004Z,84.66
2019-02-28T21:08:34.329Z,84.70
2019-02-28T21:11:08.201Z,84.82
2019-02-28T21:13:46.486Z,84.75
2019-02-28T21:16:20.719Z,84.71
2019-02-28T21:19:05.585Z,84.63
2019-02-28T21:21:38.950Z,84.42
2019-02-28T21:24:21.672Z,84.42
2019-02-28T21:27:06.187Z,84.43
2019-02-28T21:29:50.315Z,84.22
2019-02-28T21:32:23.819Z,84.03
2019-02-28T21:34:56.192Z,83.91
2019-02-28T21:37:45.553Z,83.96
2019-02-28T21:40:19.278Z,83.81
2019-02-28T21:42:53.035Z,83.71
2019-02-28T21:45:26.818Z,83.78
2019-02-28T21:48:00.979Z,83.85
2019-02-28T21:50:43.617Z,83.93
2019-02-28T21:53:16.723Z,83.90
2019-02-28T21:55:51.182Z,83.81
2019-02-28T21:58:34.047Z,83.65
2019-02-28T22:01:20.071Z,83.63
2019-02-28T22:04:02.835Z,83.74
2019-02-28T22:06:48.563Z,83.71
2019-02-28T22:09:33.817Z,83.52
2019-02-28T22:12:18.970Z,83.59
2019-02-28T22:14:52.397Z,83.81
2019-02-28T22:17:27.378Z,84.02
2019-02-28T22:19:59.944Z,84.24
2019-02-28T22:22:32.993Z,84.33
2019-02-28T22:25:07.246Z,84.31
2019-02-28T22:27:40.880Z,84.37
2019-02-28T22:30:35.600Z,84.27
2019-02-28T22:33:14.173Z,84.15
2019-02-28T22:36:11.017Z,84.15
2019-02-28T22:38:47.376Z,84.28
2019-02-28T22:41:21.287Z,84.24
2019-02-28T22:43:54.615Z,84.21
2019-02-28T22:46:43.174Z,83.98
2019-02-28T22:49:17.520Z,83.90
2019-02-28T22:51:51.613Z,83.89
2019-02-28T22:54:37.959Z,83.80
2019-02-28T22:57:12.015Z,83.73
2019-02-28T22:59:46.022Z,83.61
2019-02-28T23:02:20.459Z,83.47
2019-02-28T23:04:55.788Z,83.70
2019-02-28T23:07:29.930Z,83.95
2019-02-28T23:10:04.840Z,84.05
2019-02-28T23:12:38.995Z,84.12
2019-02-28T23:15:28.349Z,84.29
2019-02-28T23:18:03.594Z,84.43
2019-02-28T23:20:37.174Z,84.38
2019-02-28T23:23:11.347Z,84.38
2019-02-28T23:25:45.167Z,84.25
2019-02-28T23:28:30.188Z,84.22
2019-02-28T23:31:49.818Z,83.99
2019-02-28T23:34:36.769Z,83.54
2019-02-28T23:37:21.377Z,83.56
2019-02-28T23:40:04.579Z,83.73
2019-02-28T23:42:48.689Z,83.80
2019-02-28T23:45:23.308Z,83.82
2019-02-28T23:47:56.935Z,83.84
2019-02-28T23:50:32.022Z,83.85
2019-02-28T23:53:19.288Z,84.03
2019-02-28T23:55:53.256Z,84.13
2019-02-28T23:58:27.783Z,84.05
